Time;durP1;ratioP1;P1;durP2;ratioP2;P2;SDS_P1;SDS_P2;PMS_P1;PMS_P2;Temp;Humidity;BMP_temperature;BMP_pressure;BME280_temperature;BME280_humidity;BME280_pressure;Samples;Min_cycle;Max_cycle;Signal;HPM_P1;HPM_P2
2024/03/14 00:00:33;;;;;;;6.87;5.50;;;;;;;;;;4951378;28;20268;-84
2024/03/14 00:03:00;;;;;;;5.13;4.50;;;;;;;;;;4949407;28;20787;-83
2024/03/14 00:05:26;;;;;;;5.88;4.90;;;;;;;;;;4965608;28;20220;-83
2024/03/14 00:07:56;;;;;;;5.93;5.32;;;;;;;;;;4968330;28;20181;-83
2024/03/14 00:10:24;;;;;;;8.82;5.35;;;;;;;;;;4937149;28;20196;-84
2024/03/14 00:12:51;;;;;;;8.07;5.15;;;;;;;;;;4968341;28;20227;-83
2024/03/14 00:15:17;;;;;;;8.70;5.07;;;;;;;;;;4964816;28;20192;-84
2024/03/14 00:17:44;;;;;;;6.10;4.97;;;;;;;;;;4968945;28;20259;-83
2024/03/14 00:20:12;;;;;;;7.43;4.70;;;;;;;;;;4958634;28;20199;-84
2024/03/14 00:22:38;;;;;;;10.32;5.05;;;;;;;;;;4963988;28;20180;-84
2024/03/14 00:25:05;;;;;;;6.25;4.85;;;;;;;;;;4966854;28;20197;-84
2024/03/14 00:27:32;;;;;;;7.60;5.47;;;;;;;;;;4968570;28;20176;-84
2024/03/14 00:29:58;;;;;;;5.93;5.32;;;;;;;;;;4950129;28;20303;-84
2024/03/14 00:32:24;;;;;;;8.25;5.25;;;;;;;;;;4960568;28;20212;-83
2024/03/14 00:34:51;;;;;;;7.93;4.73;;;;;;;;;;4970446;28;20236;-84
2024/03/14 00:37:17;;;;;;;6.30;5.07;;;;;;;;;;4955581;28;20434;-83
2024/03/14 00:39:43;;;;;;;6.43;4.90;;;;;;;;;;4969912;28;20195;-84
2024/03/14 00:42:09;;;;;;;7.30;5.30;;;;;;;;;;4970997;28;20192;-84
2024/03/14 00:44:35;;;;;;;8.50;4.80;;;;;;;;;;4973067;28;20438;-84
2024/03/14 00:47:01;;;;;;;7.60;5.60;;;;;;;;;;4968210;28;21162;-83
2024/03/14 00:49:27;;;;;;;9.33;5.07;;;;;;;;;;4966467;28;20951;-84
2024/03/14 00:51:54;;;;;;;5.67;5.07;;;;;;;;;;4973915;28;20444;-83
2024/03/14 00:54:20;;;;;;;9.85;6.05;;;;;;;;;;4953863;28;20411;-83
2024/03/14 00:56:48;;;;;;;5.73;5.03;;;;;;;;;;4942779;28;20189;-84
2024/03/14 00:59:14;;;;;;;5.45;4.85;;;;;;;;;;4950227;28;20495;-84
2024/03/14 01:01:44;;;;;;;5.90;4.80;;;;;;;;;;4955658;28;20192;-84
2024/03/14 01:04:10;;;;;;;6.20;5.50;;;;;;;;;;4968979;28;20523;-84
2024/03/14 01:06:38;;;;;;;8.25;5.95;;;;;;;;;;4953733;28;20236;-84
2024/03/14 01:09:06;;;;;;;8.55;5.93;;;;;;;;;;4968147;28;20243;-83
2024/03/14 01:11:33;;;;;;;8.63;5.32;;;;;;;;;;4962697;28;20188;-84
2024/03/14 01:13:59;;;;;;;14.27;6.97;;;;;;;;;;4967517;28;20263;-83
2024/03/14 01:16:26;;;;;;;7.40;5.53;;;;;;;;;;4969287;28;20559;-83
2024/03/14 01:18:52;;;;;;;7.20;5.97;;;;;;;;;;4942749;28;20458;-84
2024/03/14 01:21:20;;;;;;;9.20;6.60;;;;;;;;;;4952992;28;20531;-84
2024/03/14 01:23:46;;;;;;;7.28;5.50;;;;;;;;;;4955079;28;20518;-83
2024/03/14 01:26:12;;;;;;;9.73;5.93;;;;;;;;;;4952226;28;20624;-84
2024/03/14 01:28:38;;;;;;;6.73;5.33;;;;;;;;;;4973980;28;20246;-84
2024/03/14 01:31:05;;;;;;;7.40;6.60;;;;;;;;;;4967457;28;20845;-83
2024/03/14 01:33:31;;;;;;;7.32;5.75;;;;;;;;;;4967045;28;20475;-84
2024/03/14 01:36:00;;;;;;;9.48;7.45;;;;;;;;;;4969379;28;20197;-84
2024/03/14 01:38:26;;;;;;;9.82;4.93;;;;;;;;;;4967715;28;20195;-84
2024/03/14 01:40:53;;;;;;;8.55;5.20;;;;;;;;;;4971758;28;20648;-82
2024/03/14 01:43:18;;;;;;;8.05;5.63;;;;;;;;;;4955811;28;20551;-84
2024/03/14 01:45:47;;;;;;;5.83;5.27;;;;;;;;;;4971493;28;20216;-84
2024/03/14 01:48:14;;;;;;;6.30;5.70;;;;;;;;;;4966419;28;20424;-84
2024/03/14 01:50:40;;;;;;;8.23;5.85;;;;;;;;;;4968446;28;20544;-83
2024/03/14 01:53:06;;;;;;;8.40;5.53;;;;;;;;;;4969479;28;20263;-84
2024/03/14 01:55:32;;;;;;;11.98;6.65;;;;;;;;;;4969016;28;20519;-84
2024/03/14 01:57:58;;;;;;;7.10;5.78;;;;;;;;;;4977487;28;20187;-83
2024/03/14 02:00:29;;;;;;;9.95;6.15;;;;;;;;;;4950495;28;20254;-83
2024/03/14 02:02:56;;;;;;;6.80;6.10;;;;;;;;;;4968569;28;20592;-83
2024/03/14 02:05:30;;;;;;;8.27;6.32;;;;;;;;;;4966017;28;20511;-83
2024/03/14 02:07:56;;;;;;;8.70;6.07;;;;;;;;;;4968695;28;20327;-84
2024/03/14 02:10:24;;;;;;;8.03;5.47;;;;;;;;;;4970909;28;20255;-81
2024/03/14 02:12:53;;;;;;;8.00;6.32;;;;;;;;;;4968112;28;20465;-82
2024/03/14 02:15:19;;;;;;;8.15;5.97;;;;;;;;;;4971717;28;20635;-84
2024/03/14 02:17:45;;;;;;;10.25;7.00;;;;;;;;;;4953015;28;20192;-83
2024/03/14 02:20:15;;;;;;;9.00;6.47;;;;;;;;;;4967850;28;20180;-83
2024/03/14 02:22:41;;;;;;;10.05;6.47;;;;;;;;;;4970244;28;20407;-84
2024/03/14 02:25:08;;;;;;;7.47;6.53;;;;;;;;;;4968870;28;20662;-83
2024/03/14 02:27:34;;;;;;;8.52;7.00;;;;;;;;;;4969154;28;20439;-83
2024/03/14 02:30:00;;;;;;;9.90;6.72;;;;;;;;;;4969950;28;20197;-84
2024/03/14 02:32:26;;;;;;;7.93;6.28;;;;;;;;;;4975551;28;20208;-83
2024/03/14 02:34:52;;;;;;;9.20;7.38;;;;;;;;;;4966144;28;20219;-83
2024/03/14 02:37:18;;;;;;;8.45;6.60;;;;;;;;;;4971938;28;20200;-82
2024/03/14 02:39:45;;;;;;;10.60;6.23;;;;;;;;;;4943592;28;20268;-81
2024/03/14 02:42:11;;;;;;;11.30;6.90;;;;;;;;;;4971565;28;20562;-84
2024/03/14 02:44:37;;;;;;;9.68;7.53;;;;;;;;;;4975904;28;20184;-83
2024/03/14 02:47:04;;;;;;;8.27;7.00;;;;;;;;;;4968972;28;20184;-83
2024/03/14 02:49:30;;;;;;;15.68;7.50;;;;;;;;;;4973865;28;20250;-84
2024/03/14 02:51:56;;;;;;;10.05;7.55;;;;;;;;;;4954282;28;20204;-83
2024/03/14 02:54:22;;;;;;;8.95;6.97;;;;;;;;;;4947135;28;20196;-84
2024/03/14 02:56:52;;;;;;;9.25;7.57;;;;;;;;;;4971474;28;20181;-81
2024/03/14 02:59:18;;;;;;;12.93;7.97;;;;;;;;;;4961273;28;20203;-83
2024/03/14 03:01:44;;;;;;;9.85;7.50;;;;;;;;;;4975822;28;20252;-83
2024/03/14 03:04:10;;;;;;;9.18;7.93;;;;;;;;;;4967868;28;20215;-81
2024/03/14 03:06:43;;;;;;;11.40;9.00;;;;;;;;;;4969406;28;20204;-84
2024/03/14 03:09:09;;;;;;;13.02;8.48;;;;;;;;;;4956757;28;20211;-84
2024/03/14 03:11:37;;;;;;;12.80;8.02;;;;;;;;;;4957046;28;20300;-84
2024/03/14 03:14:05;;;;;;;11.02;8.25;;;;;;;;;;4975056;28;20180;-84
2024/03/14 03:16:31;;;;;;;14.05;7.93;;;;;;;;;;4972309;28;20183;-83
2024/03/14 03:18:58;;;;;;;12.13;8.93;;;;;;;;;;4976236;28;20184;-83
2024/03/14 03:21:24;;;;;;;13.07;8.98;;;;;;;;;;4974536;28;20424;-83
2024/03/14 03:23:50;;;;;;;13.30;9.10;;;;;;;;;;4976826;28;20219;-83
2024/03/14 03:26:16;;;;;;;10.10;7.95;;;;;;;;;;4941719;28;20200;-83
2024/03/14 03:28:42;;;;;;;14.03;9.30;;;;;;;;;;4973673;28;20211;-82
2024/03/14 03:31:09;;;;;;;15.27;9.40;;;;;;;;;;4944936;28;20443;-83
2024/03/14 03:33:35;;;;;;;13.70;10.37;;;;;;;;;;4948770;28;20244;-83
2024/03/14 03:36:04;;;;;;;12.75;9.07;;;;;;;;;;4969176;28;20436;-82
2024/03/14 03:38:32;;;;;;;12.65;9.63;;;;;;;;;;4958434;28;20215;-83
2024/03/14 03:40:58;;;;;;;14.75;9.10;;;;;;;;;;4954208;28;20187;-83
2024/03/14 03:43:26;;;;;;;10.87;8.80;;;;;;;;;;4977069;28;20589;-83
2024/03/14 03:45:53;;;;;;;12.93;9.38;;;;;;;;;;4975406;28;20510;-83
2024/03/14 03:48:19;;;;;;;14.85;10.05;;;;;;;;;;4970615;28;20662;-83
2024/03/14 03:50:45;;;;;;;12.03;9.27;;;;;;;;;;4962038;28;20195;-82
2024/03/14 03:53:11;;;;;;;14.50;9.40;;;;;;;;;;4972058;28;20592;-83
2024/03/14 03:55:37;;;;;;;13.17;8.57;;;;;;;;;;4974549;28;20417;-83
2024/03/14 03:58:04;;;;;;;12.48;9.55;;;;;;;;;;4973496;28;20430;-83
2024/03/14 04:00:33;;;;;;;12.38;9.13;;;;;;;;;;4970614;28;20235;-83
2024/03/14 04:03:09;;;;;;;15.68;9.68;;;;;;;;;;4977556;28;20245;-83
2024/03/14 04:05:35;;;;;;;15.98;9.65;;;;;;;;;;4968854;28;20168;-83
2024/03/14 04:08:01;;;;;;;14.90;9.13;;;;;;;;;;4972060;28;20235;-83
2024/03/14 04:10:27;;;;;;;13.85;10.10;;;;;;;;;;4972451;28;20212;-83
2024/03/14 04:12:54;;;;;;;14.80;9.20;;;;;;;;;;4951598;28;20188;-83
2024/03/14 04:15:21;;;;;;;12.57;9.15;;;;;;;;;;4970885;28;20451;-83
2024/03/14 04:17:48;;;;;;;10.90;8.95;;;;;;;;;;4943586;28;20210;-82
2024/03/14 04:20:14;;;;;;;10.75;8.77;;;;;;;;;;4966117;28;20660;-83
2024/03/14 04:22:40;;;;;;;12.73;9.70;;;;;;;;;;4965898;28;20227;-83
2024/03/14 04:25:10;;;;;;;14.97;10.43;;;;;;;;;;4956630;28;20180;-83
2024/03/14 04:27:37;;;;;;;11.38;8.48;;;;;;;;;;4951197;28;20436;-83
2024/03/14 04:30:06;;;;;;;11.63;8.95;;;;;;;;;;4965091;28;20226;-83
2024/03/14 04:32:32;;;;;;;10.73;8.63;;;;;;;;;;4956800;28;20235;-83
2024/03/14 04:34:58;;;;;;;12.60;7.80;;;;;;;;;;4973289;28;20232;-83
2024/03/14 04:37:25;;;;;;;10.73;8.53;;;;;;;;;;4974041;28;20262;-83
2024/03/14 04:39:51;;;;;;;10.43;8.32;;;;;;;;;;4973468;28;20431;-83
2024/03/14 04:42:17;;;;;;;10.20;8.15;;;;;;;;;;4969184;28;20195;-83
2024/03/14 04:44:43;;;;;;;10.80;8.85;;;;;;;;;;4969072;28;20180;-83
2024/03/14 04:47:10;;;;;;;10.27;7.35;;;;;;;;;;4967915;28;20666;-83
2024/03/14 04:49:37;;;;;;;10.13;6.90;;;;;;;;;;4967256;28;20668;-83
2024/03/14 04:52:04;;;;;;;11.00;7.82;;;;;;;;;;4959196;28;20654;-82
2024/03/14 04:54:32;;;;;;;8.80;7.93;;;;;;;;;;4983388;28;20190;-83
2024/03/14 04:57:02;;;;;;;12.57;7.80;;;;;;;;;;4967797;28;20185;-83
2024/03/14 04:59:28;;;;;;;9.55;7.63;;;;;;;;;;4973690;28;20270;-83
2024/03/14 05:01:55;;;;;;;8.82;7.40;;;;;;;;;;4971618;28;20215;-82
2024/03/14 05:04:21;;;;;;;12.73;7.35;;;;;;;;;;4970594;28;20198;-82
2024/03/14 05:06:47;;;;;;;10.85;8.27;;;;;;;;;;4964418;28;20654;-82
2024/03/14 05:09:13;;;;;;;11.95;8.30;;;;;;;;;;4952553;28;20239;-83
2024/03/14 05:11:39;;;;;;;10.82;7.70;;;;;;;;;;4964564;28;20198;-82
2024/03/14 05:14:06;;;;;;;8.75;7.55;;;;;;;;;;4978245;28;20191;-83
2024/03/14 05:16:35;;;;;;;8.75;6.80;;;;;;;;;;4968745;28;20270;-81
2024/03/14 05:19:03;;;;;;;10.90;8.30;;;;;;;;;;4971521;28;20184;-82
2024/03/14 05:21:29;;;;;;;9.98;8.18;;;;;;;;;;4968915;28;20515;-82
2024/03/14 05:23:58;;;;;;;9.98;6.90;;;;;;;;;;4960155;28;20275;-83
2024/03/14 05:26:27;;;;;;;10.48;7.13;;;;;;;;;;4970668;28;20182;-83
2024/03/14 05:28:53;;;;;;;9.65;7.78;;;;;;;;;;4970831;28;20229;-82
2024/03/14 05:31:19;;;;;;;10.73;7.80;;;;;;;;;;4970121;28;20191;-82
2024/03/14 05:33:45;;;;;;;9.35;6.90;;;;;;;;;;4967414;28;20336;-82
2024/03/14 05:36:11;;;;;;;12.73;7.80;;;;;;;;;;4968034;28;20600;-82
2024/03/14 05:38:37;;;;;;;11.57;8.13;;;;;;;;;;4952725;28;20190;-83
2024/03/14 05:41:03;;;;;;;19.27;7.87;;;;;;;;;;4967177;28;20641;-82
2024/03/14 05:43:29;;;;;;;9.02;7.15;;;;;;;;;;4953517;28;20427;-82
2024/03/14 05:45:56;;;;;;;10.13;7.30;;;;;;;;;;4966019;28;20621;-82
2024/03/14 05:48:23;;;;;;;9.23;7.60;;;;;;;;;;4943349;28;20451;-82
2024/03/14 05:50:49;;;;;;;10.70;7.50;;;;;;;;;;4957502;28;20216;-82
2024/03/14 05:53:15;;;;;;;11.20;7.35;;;;;;;;;;4967160;28;20188;-82
2024/03/14 05:55:41;;;;;;;8.63;7.07;;;;;;;;;;4972158;28;20771;-82
2024/03/14 05:58:08;;;;;;;10.52;7.35;;;;;;;;;;4970684;28;20274;-82
2024/03/14 06:00:34;;;;;;;12.35;8.15;;;;;;;;;;4967347;28;20185;-82
2024/03/14 06:03:01;;;;;;;9.77;6.82;;;;;;;;;;4966861;28;20265;-82
2024/03/14 06:05:27;;;;;;;11.63;7.72;;;;;;;;;;4971169;28;20176;-82
2024/03/14 06:07:53;;;;;;;10.25;7.38;;;;;;;;;;4965364;28;20632;-82
2024/03/14 06:10:21;;;;;;;10.70;7.80;;;;;;;;;;4964148;28;20264;-82
2024/03/14 06:12:48;;;;;;;9.88;7.95;;;;;;;;;;4962593;28;20845;-82
2024/03/14 06:15:14;;;;;;;10.13;7.50;;;;;;;;;;4969728;28;20296;-84
2024/03/14 06:17:41;;;;;;;8.20;7.30;;;;;;;;;;4976004;28;20184;-81
2024/03/14 06:20:12;;;;;;;10.85;7.85;;;;;;;;;;4967917;28;20774;-81
2024/03/14 06:22:44;;;;;;;10.52;7.63;;;;;;;;;;4971167;28;20219;-81
2024/03/14 06:25:10;;;;;;;14.13;7.47;;;;;;;;;;4969825;28;20179;-81
2024/03/14 06:27:36;;;;;;;10.30;8.25;;;;;;;;;;4968646;28;20634;-81
2024/03/14 06:30:09;;;;;;;11.95;7.75;;;;;;;;;;4973474;28;20215;-81
2024/03/14 06:32:36;;;;;;;10.07;8.23;;;;;;;;;;4970877;28;20216;-81
2024/03/14 06:35:03;;;;;;;11.57;7.90;;;;;;;;;;4969744;28;20256;-80
2024/03/14 06:37:29;;;;;;;10.85;7.63;;;;;;;;;;4951819;29;20295;-81
2024/03/14 06:39:55;;;;;;;10.63;8.37;;;;;;;;;;4968599;28;20208;-81
2024/03/14 06:42:20;;;;;;;10.17;7.73;;;;;;;;;;4971406;28;20415;-81
2024/03/14 06:44:47;;;;;;;10.03;7.83;;;;;;;;;;4937732;28;20943;-81
2024/03/14 06:47:13;;;;;;;12.52;8.52;;;;;;;;;;4932058;28;20427;-81
2024/03/14 06:49:42;;;;;;;14.63;8.35;;;;;;;;;;4967911;28;20236;-80
2024/03/14 06:52:09;;;;;;;16.13;8.38;;;;;;;;;;4966484;28;20271;-81
2024/03/14 06:54:35;;;;;;;9.95;8.20;;;;;;;;;;4966406;28;20959;-81
2024/03/14 06:57:01;;;;;;;12.45;8.93;;;;;;;;;;4973316;28;20250;-81
2024/03/14 06:59:27;;;;;;;11.18;9.07;;;;;;;;;;4966668;28;20592;-81
2024/03/14 07:01:55;;;;;;;10.90;7.75;;;;;;;;;;4969771;28;20209;-81
2024/03/14 07:04:21;;;;;;;10.32;8.77;;;;;;;;;;4968507;28;20183;-81
2024/03/14 07:06:48;;;;;;;9.70;8.48;;;;;;;;;;4972339;28;20187;-81
2024/03/14 07:09:26;;;;;;;13.60;7.95;;;;;;;;;;4970759;28;20635;-81
2024/03/14 07:11:53;;;;;;;9.73;7.70;;;;;;;;;;4968724;28;20199;-81
2024/03/14 07:14:19;;;;;;;11.00;7.70;;;;;;;;;;4971157;28;20266;-81
2024/03/14 07:16:45;;;;;;;13.18;7.80;;;;;;;;;;4967938;28;20193;-82
2024/03/14 07:19:11;;;;;;;9.85;7.85;;;;;;;;;;4956447;28;20671;-81
2024/03/14 07:21:38;;;;;;;9.30;6.70;;;;;;;;;;4970771;28;20180;-82
2024/03/14 07:24:04;;;;;;;8.35;7.40;;;;;;;;;;4963776;28;20184;-84
2024/03/14 07:26:35;;;;;;;9.13;6.80;;;;;;;;;;4972467;28;20191;-82
2024/03/14 07:29:03;;;;;;;10.20;7.93;;;;;;;;;;4971252;28;20200;-82
2024/03/14 07:31:29;;;;;;;8.88;7.88;;;;;;;;;;4971662;28;20188;-82
2024/03/14 07:34:00;;;;;;;10.57;5.97;;;;;;;;;;4958621;28;20236;-82
2024/03/14 07:36:29;;;;;;;7.88;6.05;;;;;;;;;;4972780;28;20545;-82
2024/03/14 07:38:56;;;;;;;9.60;6.50;;;;;;;;;;4976252;28;20283;-93
2024/03/14 07:41:22;;;;;;;9.32;5.85;;;;;;;;;;4978769;28;20203;-93
2024/03/14 07:43:53;;;;;;;7.45;5.78;;;;;;;;;;4975104;28;20185;-93
2024/03/14 07:46:19;;;;;;;10.82;6.82;;;;;;;;;;4947165;28;20192;-92
2024/03/14 07:48:48;;;;;;;8.52;6.35;;;;;;;;;;4971696;28;20208;-94
2024/03/14 07:51:15;;;;;;;5.70;4.57;;;;;;;;;;4960074;28;20207;-95
2024/03/14 07:53:42;;;;;;;6.25;4.97;;;;;;;;;;4941110;29;20656;-79
2024/03/14 07:56:09;;;;;;;7.57;4.45;;;;;;;;;;4979788;28;20208;-80
2024/03/14 07:58:39;;;;;;;5.93;4.95;;;;;;;;;;4964001;28;20185;-80
2024/03/14 08:01:11;;;;;;;5.10;4.35;;;;;;;;;;4967711;28;20192;-80
2024/03/14 08:03:42;;;;;;;6.18;4.63;;;;;;;;;;4973154;28;20205;-80
2024/03/14 08:06:08;;;;;;;6.78;6.03;;;;;;;;;;4953089;28;20180;-83
2024/03/14 08:08:38;;;;;;;10.05;7.75;;;;;;;;;;4967706;28;20222;-82
2024/03/14 08:11:05;;;;;;;5.18;4.13;;;;;;;;;;4974926;28;20194;-81
2024/03/14 08:13:34;;;;;;;4.35;3.95;;;;;;;;;;4972835;28;20678;-82
2024/03/14 08:16:08;;;;;;;3.83;3.50;;;;;;;;;;4970782;28;20193;-81
2024/03/14 08:18:41;;;;;;;5.55;4.35;;;;;;;;;;4949312;28;20188;-81
2024/03/14 08:21:09;;;;;;;5.75;3.67;;;;;;;;;;4976054;28;20164;-81
2024/03/14 08:23:35;;;;;;;3.92;3.08;;;;;;;;;;4974013;28;20269;-81
2024/03/14 08:26:01;;;;;;;3.85;3.30;;;;;;;;;;4972646;28;20180;-81
2024/03/14 08:28:27;;;;;;;5.30;3.50;;;;;;;;;;4976267;28;20251;-80
2024/03/14 08:30:53;;;;;;;4.07;3.70;;;;;;;;;;4971912;28;20287;-81
2024/03/14 08:33:22;;;;;;;5.10;3.47;;;;;;;;;;4970770;28;20440;-81
2024/03/14 08:35:48;;;;;;;4.60;3.50;;;;;;;;;;4967848;28;20272;-81
2024/03/14 08:38:15;;;;;;;3.85;3.28;;;;;;;;;;4972350;28;20188;-81
2024/03/14 08:40:41;;;;;;;3.90;3.47;;;;;;;;;;4973036;28;20239;-82
2024/03/14 08:43:07;;;;;;;7.15;3.70;;;;;;;;;;4970355;28;20176;-81
2024/03/14 08:45:37;;;;;;;4.67;2.80;;;;;;;;;;4968594;28;20199;-81
2024/03/14 08:48:09;;;;;;;4.20;3.25;;;;;;;;;;4970377;28;20423;-81
2024/03/14 08:50:35;;;;;;;3.53;3.15;;;;;;;;;;4972669;28;20216;-81
2024/03/14 08:53:01;;;;;;;4.15;3.35;;;;;;;;;;4974478;28;20199;-81
2024/03/14 08:55:34;;;;;;;3.60;3.05;;;;;;;;;;4970190;28;20184;-81
2024/03/14 08:58:03;;;;;;;3.25;2.95;;;;;;;;;;4966034;28;20173;-81
2024/03/14 09:00:32;;;;;;;4.20;2.67;;;;;;;;;;4975423;28;20195;-81
2024/03/14 09:03:00;;;;;;;4.20;2.60;;;;;;;;;;4971447;28;20188;-81
2024/03/14 09:05:31;;;;;;;3.30;2.67;;;;;;;;;;4953481;28;20191;-81
2024/03/14 09:07:57;;;;;;;3.97;3.10;;;;;;;;;;4971743;28;20502;-82
2024/03/14 09:10:25;;;;;;;2.67;2.47;;;;;;;;;;4976278;28;20513;-81
2024/03/14 09:12:51;;;;;;;3.43;2.97;;;;;;;;;;4968547;28;20951;-82
2024/03/14 09:15:18;;;;;;;3.03;2.37;;;;;;;;;;4968217;28;20440;-82
2024/03/14 09:17:45;;;;;;;3.10;2.50;;;;;;;;;;4972215;28;20440;-81
2024/03/14 09:20:16;;;;;;;2.60;2.40;;;;;;;;;;4963106;28;20433;-81
2024/03/14 09:22:45;;;;;;;3.90;2.77;;;;;;;;;;4970900;28;20427;-81
2024/03/14 09:25:14;;;;;;;3.40;2.37;;;;;;;;;;4970838;28;20419;-81
2024/03/14 09:27:43;;;;;;;2.67;1.90;;;;;;;;;;4973548;28;20436;-80
2024/03/14 09:30:09;;;;;;;2.60;1.90;;;;;;;;;;4966713;28;20459;-81
2024/03/14 09:32:36;;;;;;;2.77;2.10;;;;;;;;;;4970387;28;20454;-80
2024/03/14 09:35:05;;;;;;;5.33;1.73;;;;;;;;;;4969563;28;21189;-81
2024/03/14 09:37:31;;;;;;;1.90;1.77;;;;;;;;;;4974255;28;20431;-81
2024/03/14 09:40:01;;;;;;;2.43;1.90;;;;;;;;;;4958078;28;20444;-81
2024/03/14 09:42:27;;;;;;;1.73;1.60;;;;;;;;;;4970563;28;20439;-81
2024/03/14 09:44:54;;;;;;;2.13;1.83;;;;;;;;;;4969316;28;20783;-81
2024/03/14 09:47:27;;;;;;;2.20;1.87;;;;;;;;;;4976697;28;20437;-80
2024/03/14 09:49:54;;;;;;;2.27;2.07;;;;;;;;;;4968713;28;20988;-81
2024/03/14 09:52:21;;;;;;;2.00;1.90;;;;;;;;;;4969908;28;20435;-81
2024/03/14 09:54:50;;;;;;;2.60;2.40;;;;;;;;;;4970846;28;20478;-80
2024/03/14 09:57:16;;;;;;;2.20;2.00;;;;;;;;;;4974011;28;20523;-81
2024/03/14 09:59:43;;;;;;;2.50;1.97;;;;;;;;;;4968928;28;20433;-81
2024/03/14 10:02:17;;;;;;;1.73;1.60;;;;;;;;;;4973431;28;20938;-81
2024/03/14 10:04:44;;;;;;;2.13;1.90;;;;;;;;;;4970372;28;20431;-81
2024/03/14 10:07:10;;;;;;;2.83;2.53;;;;;;;;;;4957765;28;20428;-81
2024/03/14 10:09:38;;;;;;;2.13;2.03;;;;;;;;;;4966527;28;20463;-81
2024/03/14 10:12:06;;;;;;;1.80;1.63;;;;;;;;;;4972506;28;20450;-82
2024/03/14 10:14:34;;;;;;;2.50;1.73;;;;;;;;;;4970431;28;20440;-81
2024/03/14 10:17:00;;;;;;;4.33;2.13;;;;;;;;;;4970078;28;20406;-81
2024/03/14 10:19:30;;;;;;;2.90;1.90;;;;;;;;;;4964700;28;20435;-81
2024/03/14 10:21:57;;;;;;;4.37;1.90;;;;;;;;;;4974976;28;20411;-81
2024/03/14 10:24:27;;;;;;;3.40;2.00;;;;;;;;;;4974038;28;20433;-81
2024/03/14 10:26:55;;;;;;;2.50;2.00;;;;;;;;;;4948836;28;20457;-81
2024/03/14 10:29:22;;;;;;;2.70;2.03;;;;;;;;;;4968540;28;20485;-81
2024/03/14 10:31:48;;;;;;;1.80;1.70;;;;;;;;;;4971466;28;20474;-81
2024/03/14 10:34:15;;;;;;;2.40;2.20;;;;;;;;;;4969106;28;20475;-81
2024/03/14 10:36:41;;;;;;;2.10;1.87;;;;;;;;;;4972480;28;20432;-81
2024/03/14 10:39:14;;;;;;;3.10;2.80;;;;;;;;;;4966897;28;20455;-81
2024/03/14 10:41:44;;;;;;;3.57;2.10;;;;;;;;;;4954112;28;20835;-81
2024/03/14 10:44:14;;;;;;;2.90;2.00;;;;;;;;;;4968424;28;20426;-80
2024/03/14 10:46:41;;;;;;;2.60;1.70;;;;;;;;;;4969507;28;20869;-81
2024/03/14 10:49:07;;;;;;;2.73;2.00;;;;;;;;;;4967426;28;20471;-81
2024/03/14 10:51:33;;;;;;;1.97;1.80;;;;;;;;;;4963753;28;20537;-81
2024/03/14 10:54:01;;;;;;;5.50;2.10;;;;;;;;;;4954803;28;20467;-81
2024/03/14 10:56:27;;;;;;;3.60;2.20;;;;;;;;;;4967596;28;20488;-81
2024/03/14 10:58:54;;;;;;;2.03;1.83;;;;;;;;;;4951645;28;20956;-81
2024/03/14 11:01:22;;;;;;;2.73;2.27;;;;;;;;;;4972283;28;20431;-80
2024/03/14 11:03:49;;;;;;;2.80;1.70;;;;;;;;;;4976558;28;20931;-79
2024/03/14 11:06:18;;;;;;;4.20;1.93;;;;;;;;;;4955291;28;20443;-81
2024/03/14 11:08:46;;;;;;;2.27;1.77;;;;;;;;;;4954679;28;20502;-81
2024/03/14 11:11:23;;;;;;;2.80;2.13;;;;;;;;;;4964518;28;20779;-81
2024/03/14 11:13:51;;;;;;;3.40;1.57;;;;;;;;;;4974744;28;20424;-80
2024/03/14 11:16:17;;;;;;;2.90;1.70;;;;;;;;;;4973005;28;20423;-81
2024/03/14 11:18:52;;;;;;;2.20;2.00;;;;;;;;;;4975462;28;20944;-81
2024/03/14 11:21:19;;;;;;;3.20;2.07;;;;;;;;;;4971950;28;20431;-81
2024/03/14 11:23:46;;;;;;;3.70;1.57;;;;;;;;;;4970727;28;20416;-80
2024/03/14 11:26:14;;;;;;;3.20;1.80;;;;;;;;;;4958436;28;20413;-81
2024/03/14 11:28:41;;;;;;;3.40;2.20;;;;;;;;;;4967971;28;20909;-81
2024/03/14 11:31:07;;;;;;;4.23;2.13;;;;;;;;;;4974595;28;20441;-82
2024/03/14 11:33:35;;;;;;;3.80;2.60;;;;;;;;;;4965550;28;20480;-81
2024/03/14 11:36:04;;;;;;;2.93;1.83;;;;;;;;;;4955272;29;20480;-80
2024/03/14 11:38:30;;;;;;;2.60;1.60;;;;;;;;;;4954960;29;20862;-81
2024/03/14 11:41:01;;;;;;;4.47;1.50;;;;;;;;;;4957364;29;20403;-82
2024/03/14 11:43:27;;;;;;;2.83;2.50;;;;;;;;;;4958757;29;20881;-82
2024/03/14 11:45:57;;;;;;;2.17;1.70;;;;;;;;;;4952672;29;20429;-81
2024/03/14 11:48:24;;;;;;;2.43;2.23;;;;;;;;;;4949672;29;20495;-82
2024/03/14 11:50:52;;;;;;;3.40;2.30;;;;;;;;;;4952210;29;20774;-81
2024/03/14 11:53:21;;;;;;;1.53;1.43;;;;;;;;;;4952383;29;20420;-82
2024/03/14 11:55:48;;;;;;;3.10;1.83;;;;;;;;;;4953147;29;20914;-80
2024/03/14 11:58:14;;;;;;;1.63;1.53;;;;;;;;;;4953957;29;20958;-84
2024/03/14 12:00:41;;;;;;;2.33;1.70;;;;;;;;;;4948466;29;20893;-81
2024/03/14 12:03:09;;;;;;;1.97;1.77;;;;;;;;;;4948110;29;20783;-81
2024/03/14 12:05:41;;;;;;;1.77;1.50;;;;;;;;;;4942297;29;20405;-80
2024/03/14 12:08:10;;;;;;;3.20;2.00;;;;;;;;;;4936863;29;20399;-80
2024/03/14 12:10:37;;;;;;;2.90;2.10;;;;;;;;;;4954267;28;20877;-80
2024/03/14 12:13:03;;;;;;;2.73;1.70;;;;;;;;;;4956232;29;20528;-80
2024/03/14 12:15:30;;;;;;;2.43;1.60;;;;;;;;;;4949543;29;20405;-81
2024/03/14 12:17:56;;;;;;;1.33;1.23;;;;;;;;;;4951750;29;20436;-81
2024/03/14 12:20:23;;;;;;;3.90;1.97;;;;;;;;;;4953074;29;20436;-81
2024/03/14 12:22:51;;;;;;;2.93;2.27;;;;;;;;;;4950434;29;20485;-81
2024/03/14 12:25:20;;;;;;;1.73;1.60;;;;;;;;;;4936992;29;20458;-80
2024/03/14 12:27:47;;;;;;;1.80;1.40;;;;;;;;;;4955197;29;20516;-81
2024/03/14 12:30:16;;;;;;;2.07;1.70;;;;;;;;;;4947502;29;20482;-81
2024/03/14 12:32:43;;;;;;;1.50;1.20;;;;;;;;;;4947526;29;20445;-80
2024/03/14 12:35:09;;;;;;;3.93;1.80;;;;;;;;;;4949766;29;20506;-80
2024/03/14 12:37:36;;;;;;;1.77;1.40;;;;;;;;;;4952126;29;20432;-81
2024/03/14 12:40:07;;;;;;;2.80;1.70;;;;;;;;;;4952072;29;20496;-82
2024/03/14 12:42:34;;;;;;;3.03;1.63;;;;;;;;;;4952818;29;20403;-80
2024/03/14 12:45:01;;;;;;;1.93;1.70;;;;;;;;;;4956132;29;20429;-80
2024/03/14 12:47:27;;;;;;;1.53;1.30;;;;;;;;;;4946677;29;20447;-81
2024/03/14 12:49:57;;;;;;;2.80;1.80;;;;;;;;;;4953404;29;20454;-81
2024/03/14 12:52:23;;;;;;;1.73;1.63;;;;;;;;;;4953844;29;20444;-81
2024/03/14 12:54:49;;;;;;;2.87;1.40;;;;;;;;;;4951680;29;20426;-81
2024/03/14 12:57:16;;;;;;;1.60;1.50;;;;;;;;;;4951841;29;20522;-80
2024/03/14 12:59:46;;;;;;;2.60;1.90;;;;;;;;;;4953699;29;20411;-81
2024/03/14 13:02:14;;;;;;;2.37;1.50;;;;;;;;;;4948840;29;20453;-81
2024/03/14 13:04:42;;;;;;;2.90;1.37;;;;;;;;;;4946749;29;20453;-81
2024/03/14 13:07:14;;;;;;;1.57;1.13;;;;;;;;;;4951762;29;20421;-81
2024/03/14 13:09:40;;;;;;;2.33;1.50;;;;;;;;;;4946579;29;20438;-81
2024/03/14 13:12:19;;;;;;;2.90;1.20;;;;;;;;;;4954527;29;20466;-81
2024/03/14 13:15:22;;;;;;;1.77;1.30;;;;;;;;;;4951728;28;20450;-81
2024/03/14 13:17:48;;;;;;;1.43;1.33;;;;;;;;;;4952856;29;20416;-81
2024/03/14 13:20:15;;;;;;;2.63;1.60;;;;;;;;;;4952646;29;20440;-81
2024/03/14 13:22:41;;;;;;;1.50;1.00;;;;;;;;;;4947674;28;20477;-81
2024/03/14 13:25:07;;;;;;;2.50;1.43;;;;;;;;;;4935723;29;20452;-82
2024/03/14 13:27:34;;;;;;;2.00;1.30;;;;;;;;;;4952635;29;20446;-81
2024/03/14 13:30:01;;;;;;;3.87;1.33;;;;;;;;;;4949402;29;20483;-81
2024/03/14 13:32:28;;;;;;;1.43;1.33;;;;;;;;;;4949818;29;20414;-81
2024/03/14 13:34:58;;;;;;;2.80;0.97;;;;;;;;;;4969139;28;20475;-80
2024/03/14 13:37:24;;;;;;;3.60;1.20;;;;;;;;;;4973283;28;20454;-81
2024/03/14 13:39:50;;;;;;;2.30;1.40;;;;;;;;;;4966495;28;20391;-82
2024/03/14 13:42:16;;;;;;;1.40;1.23;;;;;;;;;;4969784;28;20406;-81
2024/03/14 13:44:42;;;;;;;1.47;1.03;;;;;;;;;;4956712;28;20415;-80
2024/03/14 13:47:14;;;;;;;3.77;1.57;;;;;;;;;;4972627;28;20535;-81
2024/03/14 13:49:44;;;;;;;3.93;1.40;;;;;;;;;;4966720;28;20438;-81
2024/03/14 13:52:11;;;;;;;2.03;1.20;;;;;;;;;;4968361;28;20449;-81
2024/03/14 13:54:37;;;;;;;2.93;1.30;;;;;;;;;;4973855;28;20426;-80
2024/03/14 13:57:04;;;;;;;1.50;1.20;;;;;;;;;;4971728;28;20426;-81
2024/03/14 13:59:30;;;;;;;2.20;1.20;;;;;;;;;;4966239;28;20844;-80
2024/03/14 14:01:57;;;;;;;1.53;1.17;;;;;;;;;;4961965;28;20483;-81
2024/03/14 14:04:26;;;;;;;2.77;1.10;;;;;;;;;;4966890;28;20414;-81
2024/03/14 14:06:52;;;;;;;1.47;0.93;;;;;;;;;;4973589;28;20415;-81
2024/03/14 14:09:18;;;;;;;2.23;1.30;;;;;;;;;;4963878;28;20474;-81
2024/03/14 14:11:44;;;;;;;2.10;1.40;;;;;;;;;;4953320;28;20439;-81
2024/03/14 14:14:14;;;;;;;1.70;1.27;;;;;;;;;;4963432;28;20490;-81
2024/03/14 14:16:39;;;;;;;2.53;1.20;;;;;;;;;;4971868;28;20416;-80
2024/03/14 14:19:06;;;;;;;1.93;1.10;;;;;;;;;;4969521;28;20443;-80
2024/03/14 14:21:35;;;;;;;1.27;0.90;;;;;;;;;;4959477;28;20514;-81
2024/03/14 14:24:01;;;;;;;2.07;1.10;;;;;;;;;;4967238;28;20416;-81
2024/03/14 14:26:27;;;;;;;2.03;1.23;;;;;;;;;;4967166;28;20450;-81
2024/03/14 14:28:54;;;;;;;1.30;1.00;;;;;;;;;;4966051;28;20463;-81
2024/03/14 14:31:21;;;;;;;1.63;1.10;;;;;;;;;;4968406;28;20558;-81
2024/03/14 14:33:47;;;;;;;2.33;1.20;;;;;;;;;;4960042;28;20491;-80
2024/03/14 14:36:13;;;;;;;2.70;1.30;;;;;;;;;;4957699;29;20515;-81
2024/03/14 14:38:39;;;;;;;2.00;0.90;;;;;;;;;;4949183;29;20898;-81